Terminal Aerodrome Forecast
Issued by NWS

Home | Current Version | Previous Version | Text Only | Print | Product List | Glossary On
Versions: 1 2 3 4 5 6 7 8 9 10 11 12 13 14 15 16 17 18 19 20
000
FTUS44 KBMX 310520
TAFANB
TAF
KANB 310520Z 3106/0106 VRB03KT P6SM SCT025 OVC035
      TEMPO 3106/3107 BKN025
     FM310700 VRB03KT P6SM BKN015
      TEMPO 3110/3112 6SM BR BKN005
     FM311800 33004KT P6SM BKN050=

USA.gov is the U.S. government's official web portal to all federal, state and local government web resources and services.